sensor_id;sensor_type;location;lat;lon;timestamp;P1;durP1;ratioP1;P2;durP2;ratioP2
51179;SDS011;37243;49.814;8.652;2022-08-18T00:00:38;3.90;;;3.60;;
51179;SDS011;37243;49.814;8.652;2022-08-18T00:03:07;3.15;;;3.05;;
51179;SDS011;37243;49.814;8.652;2022-08-18T00:05:37;3.55;;;3.38;;
51179;SDS011;37243;49.814;8.652;2022-08-18T00:08:05;3.50;;;3.35;;
51179;SDS011;37243;49.814;8.652;2022-08-18T00:10:36;3.47;;;3.30;;
51179;SDS011;37243;49.814;8.652;2022-08-18T00:13:07;3.38;;;3.17;;
51179;SDS011;37243;49.814;8.652;2022-08-18T00:15:36;3.47;;;3.28;;
51179;SDS011;37243;49.814;8.652;2022-08-18T00:18:04;3.42;;;3.22;;
51179;SDS011;37243;49.814;8.652;2022-08-18T00:20:33;3.33;;;3.13;;
51179;SDS011;37243;49.814;8.652;2022-08-18T00:23:01;3.20;;;3.10;;
51179;SDS011;37243;49.814;8.652;2022-08-18T00:25:30;3.05;;;2.95;;
51179;SDS011;37243;49.814;8.652;2022-08-18T00:28:01;3.05;;;2.92;;
51179;SDS011;37243;49.814;8.652;2022-08-18T00:30:29;3.50;;;3.30;;
51179;SDS011;37243;49.814;8.652;2022-08-18T00:32:58;3.60;;;3.40;;
51179;SDS011;37243;49.814;8.652;2022-08-18T00:35:29;3.33;;;3.22;;
51179;SDS011;37243;49.814;8.652;2022-08-18T00:38:00;2.90;;;2.80;;
51179;SDS011;37243;49.814;8.652;2022-08-18T00:40:31;3.38;;;3.28;;
51179;SDS011;37243;49.814;8.652;2022-08-18T00:43:06;3.80;;;3.50;;
51179;SDS011;37243;49.814;8.652;2022-08-18T00:45:41;3.30;;;3.20;;
51179;SDS011;37243;49.814;8.652;2022-08-18T00:48:10;3.50;;;3.40;;
51179;SDS011;37243;49.814;8.652;2022-08-18T00:50:41;3.65;;;3.35;;
51179;SDS011;37243;49.814;8.652;2022-08-18T00:53:17;3.15;;;3.03;;
51179;SDS011;37243;49.814;8.652;2022-08-18T00:55:50;3.58;;;3.38;;
51179;SDS011;37243;49.814;8.652;2022-08-18T00:58:23;3.55;;;3.35;;
51179;SDS011;37243;49.814;8.652;2022-08-18T01:00:55;2.97;;;2.88;;
51179;SDS011;37243;49.814;8.652;2022-08-18T01:03:23;3.20;;;3.00;;
51179;SDS011;37243;49.814;8.652;2022-08-18T01:05:54;3.50;;;3.30;;
51179;SDS011;37243;49.814;8.652;2022-08-18T01:08:26;3.08;;;2.97;;
51179;SDS011;37243;49.814;8.652;2022-08-18T01:10:56;3.47;;;3.28;;
51179;SDS011;37243;49.814;8.652;2022-08-18T01:13:29;3.47;;;3.38;;
51179;SDS011;37243;49.814;8.652;2022-08-18T01:15:59;3.55;;;3.35;;
51179;SDS011;37243;49.814;8.652;2022-08-18T01:18:49;3.45;;;3.25;;
51179;SDS011;37243;49.814;8.652;2022-08-18T01:21:30;3.03;;;2.92;;
51179;SDS011;37243;49.814;8.652;2022-08-18T01:24:22;3.30;;;3.20;;
51179;SDS011;37243;49.814;8.652;2022-08-18T01:27:14;3.60;;;3.40;;
51179;SDS011;37243;49.814;8.652;2022-08-18T01:29:42;3.40;;;3.13;;
51179;SDS011;37243;49.814;8.652;2022-08-18T01:32:13;3.55;;;3.35;;
51179;SDS011;37243;49.814;8.652;2022-08-18T01:34:43;3.83;;;3.63;;
51179;SDS011;37243;49.814;8.652;2022-08-18T01:37:16;3.28;;;3.17;;
51179;SDS011;37243;49.814;8.652;2022-08-18T01:39:50;3.20;;;3.03;;
51179;SDS011;37243;49.814;8.652;2022-08-18T01:42:19;3.40;;;3.30;;
51179;SDS011;37243;49.814;8.652;2022-08-18T01:44:47;3.60;;;3.40;;
51179;SDS011;37243;49.814;8.652;2022-08-18T01:47:17;3.75;;;3.53;;
51179;SDS011;37243;49.814;8.652;2022-08-18T01:49:46;3.42;;;3.22;;
51179;SDS011;37243;49.814;8.652;2022-08-18T01:52:15;3.30;;;3.10;;
51179;SDS011;37243;49.814;8.652;2022-08-18T01:54:46;3.50;;;3.38;;
51179;SDS011;37243;49.814;8.652;2022-08-18T01:57:18;3.60;;;3.40;;
51179;SDS011;37243;49.814;8.652;2022-08-18T01:59:47;3.40;;;3.20;;
51179;SDS011;37243;49.814;8.652;2022-08-18T02:02:16;3.70;;;3.40;;
51179;SDS011;37243;49.814;8.652;2022-08-18T02:04:48;3.38;;;3.28;;
51179;SDS011;37243;49.814;8.652;2022-08-18T02:07:19;3.72;;;3.53;;
51179;SDS011;37243;49.814;8.652;2022-08-18T02:09:47;3.35;;;3.25;;
51179;SDS011;37243;49.814;8.652;2022-08-18T02:12:18;3.28;;;3.17;;
51179;SDS011;37243;49.814;8.652;2022-08-18T02:14:47;3.55;;;3.35;;
51179;SDS011;37243;49.814;8.652;2022-08-18T02:17:17;3.30;;;3.10;;
51179;SDS011;37243;49.814;8.652;2022-08-18T02:19:46;3.47;;;3.38;;
51179;SDS011;37243;49.814;8.652;2022-08-18T02:22:17;3.20;;;3.10;;
51179;SDS011;37243;49.814;8.652;2022-08-18T02:24:46;3.47;;;3.28;;
51179;SDS011;37243;49.814;8.652;2022-08-18T02:27:15;3.00;;;2.90;;
51179;SDS011;37243;49.814;8.652;2022-08-18T02:29:46;3.42;;;3.22;;
51179;SDS011;37243;49.814;8.652;2022-08-18T02:32:14;3.30;;;3.20;;
51179;SDS011;37243;49.814;8.652;2022-08-18T02:34:42;3.40;;;3.20;;
51179;SDS011;37243;49.814;8.652;2022-08-18T02:37:11;3.45;;;3.35;;
51179;SDS011;37243;49.814;8.652;2022-08-18T02:39:39;3.40;;;3.20;;
51179;SDS011;37243;49.814;8.652;2022-08-18T02:42:07;3.13;;;3.03;;
51179;SDS011;37243;49.814;8.652;2022-08-18T02:44:38;3.63;;;3.42;;
51179;SDS011;37243;49.814;8.652;2022-08-18T02:47:10;3.20;;;3.10;;
51179;SDS011;37243;49.814;8.652;2022-08-18T02:49:38;3.30;;;3.20;;
51179;SDS011;37243;49.814;8.652;2022-08-18T02:52:06;3.47;;;3.28;;
51179;SDS011;37243;49.814;8.652;2022-08-18T02:54:36;3.20;;;3.10;;
51179;SDS011;37243;49.814;8.652;2022-08-18T02:57:05;3.33;;;3.22;;
51179;SDS011;37243;49.814;8.652;2022-08-18T02:59:35;3.47;;;3.28;;
51179;SDS011;37243;49.814;8.652;2022-08-18T03:02:05;3.20;;;3.10;;
51179;SDS011;37243;49.814;8.652;2022-08-18T03:04:37;3.03;;;2.90;;
51179;SDS011;37243;49.814;8.652;2022-08-18T03:07:06;3.47;;;3.30;;
51179;SDS011;37243;49.814;8.652;2022-08-18T03:09:34;3.10;;;3.00;;
51179;SDS011;37243;49.814;8.652;2022-08-18T03:12:04;3.20;;;3.00;;
51179;SDS011;37243;49.814;8.652;2022-08-18T03:14:33;3.42;;;3.13;;
51179;SDS011;37243;49.814;8.652;2022-08-18T03:17:04;3.65;;;3.47;;
51179;SDS011;37243;49.814;8.652;2022-08-18T03:19:37;3.15;;;3.05;;
51179;SDS011;37243;49.814;8.652;2022-08-18T03:22:09;3.60;;;3.40;;
51179;SDS011;37243;49.814;8.652;2022-08-18T03:24:38;3.45;;;3.25;;
51179;SDS011;37243;49.814;8.652;2022-08-18T03:27:07;3.47;;;3.28;;
51179;SDS011;37243;49.814;8.652;2022-08-18T03:29:36;3.30;;;3.13;;
51179;SDS011;37243;49.814;8.652;2022-08-18T03:32:05;3.40;;;3.20;;
51179;SDS011;37243;49.814;8.652;2022-08-18T03:34:34;3.03;;;2.92;;
51179;SDS011;37243;49.814;8.652;2022-08-18T03:37:05;3.17;;;3.03;;
51179;SDS011;37243;49.814;8.652;2022-08-18T03:39:33;3.13;;;3.03;;
51179;SDS011;37243;49.814;8.652;2022-08-18T03:42:02;3.03;;;2.92;;
51179;SDS011;37243;49.814;8.652;2022-08-18T03:44:31;3.28;;;3.17;;
51179;SDS011;37243;49.814;8.652;2022-08-18T03:47:01;3.28;;;3.17;;
51179;SDS011;37243;49.814;8.652;2022-08-18T03:49:31;3.22;;;3.03;;
51179;SDS011;37243;49.814;8.652;2022-08-18T03:52:00;3.05;;;2.95;;
51179;SDS011;37243;49.814;8.652;2022-08-18T03:54:32;3.30;;;3.00;;
51179;SDS011;37243;49.814;8.652;2022-08-18T03:57:01;3.25;;;3.15;;
51179;SDS011;37243;49.814;8.652;2022-08-18T03:59:30;3.53;;;3.33;;
51179;SDS011;37243;49.814;8.652;2022-08-18T04:01:58;3.40;;;3.30;;
51179;SDS011;37243;49.814;8.652;2022-08-18T04:04:30;3.00;;;2.90;;
51179;SDS011;37243;49.814;8.652;2022-08-18T04:06:59;3.20;;;3.00;;
51179;SDS011;37243;49.814;8.652;2022-08-18T04:09:29;3.00;;;2.90;;
51179;SDS011;37243;49.814;8.652;2022-08-18T04:12:02;3.13;;;3.03;;
51179;SDS011;37243;49.814;8.652;2022-08-18T04:14:35;3.20;;;3.05;;
51179;SDS011;37243;49.814;8.652;2022-08-18T04:17:03;3.20;;;3.10;;
51179;SDS011;37243;49.814;8.652;2022-08-18T04:19:32;3.15;;;3.05;;
51179;SDS011;37243;49.814;8.652;2022-08-18T04:22:02;2.97;;;2.88;;
51179;SDS011;37243;49.814;8.652;2022-08-18T04:24:34;3.25;;;3.05;;
51179;SDS011;37243;49.814;8.652;2022-08-18T04:27:02;3.13;;;2.97;;
51179;SDS011;37243;49.814;8.652;2022-08-18T04:29:31;3.38;;;3.17;;
51179;SDS011;37243;49.814;8.652;2022-08-18T04:32:00;3.35;;;3.15;;
51179;SDS011;37243;49.814;8.652;2022-08-18T04:34:30;2.97;;;2.78;;
51179;SDS011;37243;49.814;8.652;2022-08-18T04:37:00;3.30;;;3.00;;
51179;SDS011;37243;49.814;8.652;2022-08-18T04:39:29;3.22;;;3.13;;
51179;SDS011;37243;49.814;8.652;2022-08-18T04:42:00;2.95;;;2.75;;
51179;SDS011;37243;49.814;8.652;2022-08-18T04:44:29;3.22;;;3.03;;
51179;SDS011;37243;49.814;8.652;2022-08-18T04:46:59;3.50;;;3.30;;
51179;SDS011;37243;49.814;8.652;2022-08-18T04:49:27;3.67;;;3.47;;
51179;SDS011;37243;49.814;8.652;2022-08-18T04:51:58;3.70;;;3.50;;
51179;SDS011;37243;49.814;8.652;2022-08-18T04:54:39;3.38;;;3.17;;
51179;SDS011;37243;49.814;8.652;2022-08-18T04:57:11;3.50;;;3.35;;
51179;SDS011;37243;49.814;8.652;2022-08-18T04:59:41;3.08;;;2.97;;
51179;SDS011;37243;49.814;8.652;2022-08-18T05:02:12;3.33;;;3.13;;
51179;SDS011;37243;49.814;8.652;2022-08-18T05:04:43;3.10;;;3.00;;
51179;SDS011;37243;49.814;8.652;2022-08-18T05:07:13;3.35;;;3.15;;
51179;SDS011;37243;49.814;8.652;2022-08-18T05:09:43;3.00;;;2.90;;
51179;SDS011;37243;49.814;8.652;2022-08-18T05:12:15;3.25;;;3.15;;
51179;SDS011;37243;49.814;8.652;2022-08-18T05:14:44;2.90;;;2.80;;
51179;SDS011;37243;49.814;8.652;2022-08-18T05:17:12;3.15;;;2.95;;
51179;SDS011;37243;49.814;8.652;2022-08-18T05:19:42;3.70;;;3.50;;
51179;SDS011;37243;49.814;8.652;2022-08-18T05:22:11;3.58;;;3.25;;
51179;SDS011;37243;49.814;8.652;2022-08-18T05:24:43;3.17;;;3.00;;
51179;SDS011;37243;49.814;8.652;2022-08-18T05:27:15;3.20;;;3.10;;
51179;SDS011;37243;49.814;8.652;2022-08-18T05:29:43;3.30;;;3.20;;
51179;SDS011;37243;49.814;8.652;2022-08-18T05:32:13;3.42;;;3.13;;
51179;SDS011;37243;49.814;8.652;2022-08-18T05:34:41;3.10;;;3.00;;
51179;SDS011;37243;49.814;8.652;2022-08-18T05:37:15;3.17;;;2.97;;
51179;SDS011;37243;49.814;8.652;2022-08-18T05:39:54;3.28;;;3.08;;
51179;SDS011;37243;49.814;8.652;2022-08-18T05:42:28;3.28;;;3.17;;
51179;SDS011;37243;49.814;8.652;2022-08-18T05:45:01;3.30;;;3.15;;
51179;SDS011;37243;49.814;8.652;2022-08-18T05:47:35;3.20;;;3.00;;
51179;SDS011;37243;49.814;8.652;2022-08-18T05:50:05;3.25;;;3.10;;
51179;SDS011;37243;49.814;8.652;2022-08-18T05:52:36;3.20;;;3.10;;
51179;SDS011;37243;49.814;8.652;2022-08-18T05:55:08;3.38;;;3.17;;
51179;SDS011;37243;49.814;8.652;2022-08-18T05:57:56;3.67;;;3.47;;
51179;SDS011;37243;49.814;8.652;2022-08-18T06:00:29;3.30;;;3.20;;
51179;SDS011;37243;49.814;8.652;2022-08-18T06:02:59;3.28;;;3.10;;
51179;SDS011;37243;49.814;8.652;2022-08-18T06:05:34;3.20;;;3.08;;
51179;SDS011;37243;49.814;8.652;2022-08-18T06:08:07;2.95;;;2.85;;
51179;SDS011;37243;49.814;8.652;2022-08-18T06:10:38;3.60;;;3.40;;
51179;SDS011;37243;49.814;8.652;2022-08-18T06:13:13;3.78;;;3.47;;
51179;SDS011;37243;49.814;8.652;2022-08-18T06:15:45;3.10;;;3.00;;
51179;SDS011;37243;49.814;8.652;2022-08-18T06:18:21;3.25;;;3.00;;
51179;SDS011;37243;49.814;8.652;2022-08-18T06:21:08;3.70;;;3.50;;
51179;SDS011;37243;49.814;8.652;2022-08-18T06:23:55;3.25;;;3.15;;
51179;SDS011;37243;49.814;8.652;2022-08-18T06:26:36;2.83;;;2.72;;
51179;SDS011;37243;49.814;8.652;2022-08-18T06:29:15;3.10;;;3.00;;
51179;SDS011;37243;49.814;8.652;2022-08-18T06:31:57;3.47;;;3.25;;
51179;SDS011;37243;49.814;8.652;2022-08-18T06:34:31;3.35;;;3.15;;
51179;SDS011;37243;49.814;8.652;2022-08-18T06:37:11;3.35;;;3.17;;
51179;SDS011;37243;49.814;8.652;2022-08-18T06:39:47;3.20;;;3.10;;
51179;SDS011;37243;49.814;8.652;2022-08-18T06:42:18;3.40;;;3.20;;
51179;SDS011;37243;49.814;8.652;2022-08-18T06:44:57;3.08;;;2.90;;
51179;SDS011;37243;49.814;8.652;2022-08-18T06:47:31;3.58;;;3.38;;
51179;SDS011;37243;49.814;8.652;2022-08-18T06:50:06;2.75;;;2.65;;
51179;SDS011;37243;49.814;8.652;2022-08-18T06:52:38;3.25;;;3.10;;
51179;SDS011;37243;49.814;8.652;2022-08-18T06:55:30;3.17;;;3.08;;
51179;SDS011;37243;49.814;8.652;2022-08-18T06:58:00;3.28;;;3.08;;
51179;SDS011;37243;49.814;8.652;2022-08-18T07:00:33;3.15;;;3.05;;
51179;SDS011;37243;49.814;8.652;2022-08-18T07:03:04;3.25;;;3.08;;
51179;SDS011;37243;49.814;8.652;2022-08-18T07:05:34;3.03;;;2.90;;
51179;SDS011;37243;49.814;8.652;2022-08-18T07:08:14;3.28;;;3.08;;
51179;SDS011;37243;49.814;8.652;2022-08-18T07:10:48;3.20;;;3.00;;
51179;SDS011;37243;49.814;8.652;2022-08-18T07:13:22;3.20;;;3.10;;
51179;SDS011;37243;49.814;8.652;2022-08-18T07:18:49;3.10;;;3.00;;
51179;SDS011;37243;49.814;8.652;2022-08-18T07:21:25;3.22;;;3.10;;
51179;SDS011;37243;49.814;8.652;2022-08-18T07:23:57;3.10;;;2.97;;
51179;SDS011;37243;49.814;8.652;2022-08-18T07:26:27;2.85;;;2.75;;
51179;SDS011;37243;49.814;8.652;2022-08-18T07:28:56;3.33;;;3.22;;
51179;SDS011;37243;49.814;8.652;2022-08-18T07:31:44;3.40;;;3.20;;
51179;SDS011;37243;49.814;8.652;2022-08-18T07:34:18;3.20;;;3.00;;
51179;SDS011;37243;49.814;8.652;2022-08-18T07:36:52;3.45;;;3.25;;
51179;SDS011;37243;49.814;8.652;2022-08-18T07:39:27;3.30;;;3.10;;
51179;SDS011;37243;49.814;8.652;2022-08-18T07:42:01;3.17;;;3.08;;
51179;SDS011;37243;49.814;8.652;2022-08-18T07:44:39;3.03;;;2.90;;
51179;SDS011;37243;49.814;8.652;2022-08-18T07:47:15;3.10;;;3.00;;
51179;SDS011;37243;49.814;8.652;2022-08-18T07:49:46;3.47;;;3.30;;
51179;SDS011;37243;49.814;8.652;2022-08-18T07:52:17;3.33;;;3.00;;
51179;SDS011;37243;49.814;8.652;2022-08-18T07:54:51;2.90;;;2.80;;
51179;SDS011;37243;49.814;8.652;2022-08-18T07:57:28;2.88;;;2.78;;
51179;SDS011;37243;49.814;8.652;2022-08-18T08:00:08;3.58;;;3.38;;
51179;SDS011;37243;49.814;8.652;2022-08-18T08:02:55;3.20;;;3.10;;
51179;SDS011;37243;49.814;8.652;2022-08-18T08:05:40;3.40;;;3.20;;
51179;SDS011;37243;49.814;8.652;2022-08-18T08:08:18;3.22;;;3.03;;
51179;SDS011;37243;49.814;8.652;2022-08-18T08:10:53;3.20;;;3.10;;
51179;SDS011;37243;49.814;8.652;2022-08-18T08:13:34;3.28;;;3.17;;
51179;SDS011;37243;49.814;8.652;2022-08-18T08:16:18;2.97;;;2.88;;
51179;SDS011;37243;49.814;8.652;2022-08-18T08:18:57;3.55;;;3.35;;
51179;SDS011;37243;49.814;8.652;2022-08-18T08:21:33;3.35;;;3.15;;
51179;SDS011;37243;49.814;8.652;2022-08-18T08:24:09;3.25;;;3.15;;
51179;SDS011;37243;49.814;8.652;2022-08-18T08:26:47;3.25;;;3.05;;
51179;SDS011;37243;49.814;8.652;2022-08-18T08:29:23;3.05;;;2.95;;
51179;SDS011;37243;49.814;8.652;2022-08-18T08:32:02;3.30;;;3.10;;
51179;SDS011;37243;49.814;8.652;2022-08-18T08:34:36;3.25;;;3.10;;
51179;SDS011;37243;49.814;8.652;2022-08-18T08:37:11;3.13;;;2.85;;
51179;SDS011;37243;49.814;8.652;2022-08-18T08:39:44;3.45;;;3.25;;
51179;SDS011;37243;49.814;8.652;2022-08-18T08:42:17;3.28;;;3.15;;
51179;SDS011;37243;49.814;8.652;2022-08-18T08:44:53;3.13;;;3.03;;
51179;SDS011;37243;49.814;8.652;2022-08-18T08:47:25;3.50;;;3.30;;
51179;SDS011;37243;49.814;8.652;2022-08-18T08:50:05;3.25;;;3.13;;
51179;SDS011;37243;49.814;8.652;2022-08-18T08:52:39;3.00;;;2.90;;
51179;SDS011;37243;49.814;8.652;2022-08-18T08:55:11;3.03;;;2.92;;
51179;SDS011;37243;49.814;8.652;2022-08-18T08:57:46;2.97;;;2.88;;
51179;SDS011;37243;49.814;8.652;2022-08-18T09:00:19;3.50;;;3.30;;
51179;SDS011;37243;49.814;8.652;2022-08-18T09:02:57;3.25;;;3.03;;
51179;SDS011;37243;49.814;8.652;2022-08-18T09:05:40;3.15;;;3.00;;
51179;SDS011;37243;49.814;8.652;2022-08-18T09:08:25;3.42;;;3.22;;
51179;SDS011;37243;49.814;8.652;2022-08-18T09:11:17;3.00;;;2.90;;
51179;SDS011;37243;49.814;8.652;2022-08-18T09:14:11;3.50;;;3.30;;
51179;SDS011;37243;49.814;8.652;2022-08-18T09:16:59;3.50;;;3.30;;
51179;SDS011;37243;49.814;8.652;2022-08-18T09:19:46;3.25;;;3.05;;
51179;SDS011;37243;49.814;8.652;2022-08-18T09:22:35;3.22;;;3.13;;
51179;SDS011;37243;49.814;8.652;2022-08-18T09:25:28;3.03;;;2.90;;
51179;SDS011;37243;49.814;8.652;2022-08-18T09:28:05;3.20;;;3.00;;
51179;SDS011;37243;49.814;8.652;2022-08-18T09:30:41;3.25;;;3.15;;
51179;SDS011;37243;49.814;8.652;2022-08-18T09:33:18;3.10;;;2.90;;
51179;SDS011;37243;49.814;8.652;2022-08-18T09:36:09;3.00;;;2.90;;
51179;SDS011;37243;49.814;8.652;2022-08-18T09:38:54;3.80;;;3.60;;
51179;SDS011;37243;49.814;8.652;2022-08-18T09:41:45;3.28;;;3.08;;
51179;SDS011;37243;49.814;8.652;2022-08-18T09:50:36;3.25;;;3.15;;
51179;SDS011;37243;49.814;8.652;2022-08-18T09:59:57;3.17;;;3.00;;
51179;SDS011;37243;49.814;8.652;2022-08-18T10:05:55;3.05;;;2.95;;
51179;SDS011;37243;49.814;8.652;2022-08-18T10:08:46;3.45;;;3.25;;
51179;SDS011;37243;49.814;8.652;2022-08-18T10:11:32;3.60;;;3.30;;
51179;SDS011;37243;49.814;8.652;2022-08-18T10:17:08;3.05;;;2.95;;
51179;SDS011;37243;49.814;8.652;2022-08-18T10:19:48;3.22;;;3.13;;
51179;SDS011;37243;49.814;8.652;2022-08-18T10:22:38;3.60;;;3.40;;
51179;SDS011;37243;49.814;8.652;2022-08-18T10:25:10;3.08;;;2.97;;
51179;SDS011;37243;49.814;8.652;2022-08-18T10:27:49;3.60;;;3.40;;
51179;SDS011;37243;49.814;8.652;2022-08-18T10:36:36;3.20;;;3.10;;
51179;SDS011;37243;49.814;8.652;2022-08-18T10:39:13;3.30;;;3.20;;
51179;SDS011;37243;49.814;8.652;2022-08-18T10:41:53;3.45;;;3.30;;
51179;SDS011;37243;49.814;8.652;2022-08-18T10:44:27;3.30;;;3.10;;
51179;SDS011;37243;49.814;8.652;2022-08-18T10:46:58;3.25;;;3.15;;
51179;SDS011;37243;49.814;8.652;2022-08-18T10:49:28;3.83;;;3.53;;
51179;SDS011;37243;49.814;8.652;2022-08-18T10:52:13;3.30;;;3.10;;
51179;SDS011;37243;49.814;8.652;2022-08-18T10:55:00;3.30;;;3.10;;
51179;SDS011;37243;49.814;8.652;2022-08-18T10:57:38;3.47;;;3.30;;
51179;SDS011;37243;49.814;8.652;2022-08-18T11:00:33;3.60;;;3.40;;
51179;SDS011;37243;49.814;8.652;2022-08-18T11:03:12;3.80;;;3.53;;
51179;SDS011;37243;49.814;8.652;2022-08-18T11:06:00;3.30;;;3.13;;
51179;SDS011;37243;49.814;8.652;2022-08-18T11:08:31;3.40;;;3.20;;
51179;SDS011;37243;49.814;8.652;2022-08-18T11:11:05;3.83;;;3.63;;
51179;SDS011;37243;49.814;8.652;2022-08-18T11:13:46;3.50;;;3.40;;
51179;SDS011;37243;49.814;8.652;2022-08-18T11:16:27;3.50;;;3.30;;
51179;SDS011;37243;49.814;8.652;2022-08-18T11:19:06;3.40;;;3.30;;
51179;SDS011;37243;49.814;8.652;2022-08-18T11:21:38;3.15;;;2.95;;
51179;SDS011;37243;49.814;8.652;2022-08-18T11:24:11;3.65;;;3.55;;
51179;SDS011;37243;49.814;8.652;2022-08-18T11:26:42;3.72;;;3.53;;
51179;SDS011;37243;49.814;8.652;2022-08-18T11:29:20;3.53;;;3.33;;
51179;SDS011;37243;49.814;8.652;2022-08-18T11:32:00;3.70;;;3.50;;
51179;SDS011;37243;49.814;8.652;2022-08-18T11:34:35;3.70;;;3.50;;
51179;SDS011;37243;49.814;8.652;2022-08-18T11:37:07;3.17;;;3.08;;
51179;SDS011;37243;49.814;8.652;2022-08-18T11:39:47;3.53;;;3.40;;
51179;SDS011;37243;49.814;8.652;2022-08-18T11:42:18;4.15;;;3.95;;
51179;SDS011;37243;49.814;8.652;2022-08-18T11:44:54;3.92;;;3.72;;
51179;SDS011;37243;49.814;8.652;2022-08-18T11:47:31;3.75;;;3.55;;
51179;SDS011;37243;49.814;8.652;2022-08-18T11:50:07;4.03;;;3.83;;
51179;SDS011;37243;49.814;8.652;2022-08-18T11:52:48;3.90;;;3.70;;
51179;SDS011;37243;49.814;8.652;2022-08-18T11:55:20;4.00;;;3.80;;
51179;SDS011;37243;49.814;8.652;2022-08-18T11:57:58;4.20;;;4.00;;
51179;SDS011;37243;49.814;8.652;2022-08-18T12:00:36;3.60;;;3.40;;
51179;SDS011;37243;49.814;8.652;2022-08-18T12:03:25;3.88;;;3.67;;
51179;SDS011;37243;49.814;8.652;2022-08-18T12:05:57;4.10;;;3.90;;
51179;SDS011;37243;49.814;8.652;2022-08-18T12:08:46;4.07;;;3.88;;
51179;SDS011;37243;49.814;8.652;2022-08-18T12:11:18;4.32;;;4.13;;
51179;SDS011;37243;49.814;8.652;2022-08-18T12:14:01;3.95;;;3.75;;
51179;SDS011;37243;49.814;8.652;2022-08-18T12:16:36;4.15;;;3.85;;
51179;SDS011;37243;49.814;8.652;2022-08-18T12:19:11;3.97;;;3.78;;
51179;SDS011;37243;49.814;8.652;2022-08-18T12:21:41;4.32;;;4.13;;
51179;SDS011;37243;49.814;8.652;2022-08-18T12:24:18;4.15;;;3.95;;
51179;SDS011;37243;49.814;8.652;2022-08-18T12:26:48;4.10;;;3.90;;
51179;SDS011;37243;49.814;8.652;2022-08-18T12:29:18;3.95;;;3.75;;
51179;SDS011;37243;49.814;8.652;2022-08-18T12:31:48;4.47;;;4.28;;
51179;SDS011;37243;49.814;8.652;2022-08-18T12:34:21;4.45;;;4.25;;
51179;SDS011;37243;49.814;8.652;2022-08-18T12:36:54;4.53;;;4.32;;
51179;SDS011;37243;49.814;8.652;2022-08-18T12:39:25;4.25;;;4.05;;
51179;SDS011;37243;49.814;8.652;2022-08-18T12:41:54;4.55;;;4.35;;
51179;SDS011;37243;49.814;8.652;2022-08-18T12:44:23;4.35;;;4.15;;
51179;SDS011;37243;49.814;8.652;2022-08-18T12:46:51;4.28;;;4.07;;
51179;SDS011;37243;49.814;8.652;2022-08-18T12:49:23;4.30;;;4.10;;
51179;SDS011;37243;49.814;8.652;2022-08-18T12:51:52;4.30;;;4.10;;
51179;SDS011;37243;49.814;8.652;2022-08-18T12:54:21;4.47;;;4.28;;
51179;SDS011;37243;49.814;8.652;2022-08-18T12:56:50;4.53;;;4.32;;
51179;SDS011;37243;49.814;8.652;2022-08-18T12:59:21;4.57;;;4.38;;
51179;SDS011;37243;49.814;8.652;2022-08-18T13:01:50;4.25;;;4.05;;
51179;SDS011;37243;49.814;8.652;2022-08-18T13:04:19;4.65;;;4.45;;
51179;SDS011;37243;49.814;8.652;2022-08-18T13:06:51;4.40;;;4.20;;
51179;SDS011;37243;49.814;8.652;2022-08-18T13:09:21;4.18;;;3.97;;
51179;SDS011;37243;49.814;8.652;2022-08-18T13:11:50;4.35;;;4.15;;
51179;SDS011;37243;49.814;8.652;2022-08-18T13:14:19;4.40;;;4.20;;
51179;SDS011;37243;49.814;8.652;2022-08-18T13:16:47;4.63;;;4.32;;
51179;SDS011;37243;49.814;8.652;2022-08-18T13:19:17;3.88;;;3.78;;
51179;SDS011;37243;49.814;8.652;2022-08-18T13:21:45;4.57;;;4.30;;
51179;SDS011;37243;49.814;8.652;2022-08-18T13:24:16;4.18;;;3.97;;
51179;SDS011;37243;49.814;8.652;2022-08-18T13:26:45;4.40;;;4.20;;
51179;SDS011;37243;49.814;8.652;2022-08-18T13:29:15;4.82;;;4.63;;
51179;SDS011;37243;49.814;8.652;2022-08-18T13:31:45;4.43;;;4.22;;
51179;SDS011;37243;49.814;8.652;2022-08-18T13:34:14;4.38;;;4.18;;
51179;SDS011;37243;49.814;8.652;2022-08-18T13:36:42;4.53;;;4.28;;
51179;SDS011;37243;49.814;8.652;2022-08-18T13:39:12;4.20;;;4.00;;
51179;SDS011;37243;49.814;8.652;2022-08-18T13:41:45;4.63;;;4.43;;
51179;SDS011;37243;49.814;8.652;2022-08-18T13:44:15;4.50;;;4.30;;
51179;SDS011;37243;49.814;8.652;2022-08-18T13:46:45;4.53;;;4.30;;
51179;SDS011;37243;49.814;8.652;2022-08-18T13:49:15;4.60;;;4.40;;
51179;SDS011;37243;49.814;8.652;2022-08-18T13:51:45;4.53;;;4.32;;
51179;SDS011;37243;49.814;8.652;2022-08-18T13:54:15;4.70;;;4.50;;
51179;SDS011;37243;49.814;8.652;2022-08-18T13:56:49;4.47;;;4.28;;
51179;SDS011;37243;49.814;8.652;2022-08-18T13:59:17;4.88;;;4.57;;
51179;SDS011;37243;49.814;8.652;2022-08-18T14:01:47;4.47;;;4.28;;
51179;SDS011;37243;49.814;8.652;2022-08-18T14:04:15;4.30;;;4.10;;
51179;SDS011;37243;49.814;8.652;2022-08-18T14:06:45;4.72;;;4.50;;
51179;SDS011;37243;49.814;8.652;2022-08-18T14:09:13;3.95;;;3.75;;
51179;SDS011;37243;49.814;8.652;2022-08-18T14:11:41;4.43;;;4.22;;
51179;SDS011;37243;49.814;8.652;2022-08-18T14:14:14;4.15;;;3.95;;
51179;SDS011;37243;49.814;8.652;2022-08-18T14:16:44;4.70;;;4.50;;
51179;SDS011;37243;49.814;8.652;2022-08-18T14:19:12;4.50;;;4.30;;
51179;SDS011;37243;49.814;8.652;2022-08-18T14:21:53;4.40;;;4.20;;
51179;SDS011;37243;49.814;8.652;2022-08-18T14:24:35;4.40;;;4.20;;
51179;SDS011;37243;49.814;8.652;2022-08-18T14:27:17;4.22;;;4.03;;
51179;SDS011;37243;49.814;8.652;2022-08-18T14:29:49;4.70;;;4.50;;
51179;SDS011;37243;49.814;8.652;2022-08-18T14:32:18;4.28;;;4.07;;
51179;SDS011;37243;49.814;8.652;2022-08-18T14:34:51;4.88;;;4.57;;
51179;SDS011;37243;49.814;8.652;2022-08-18T14:37:20;4.50;;;4.30;;
51179;SDS011;37243;49.814;8.652;2022-08-18T14:39:48;4.40;;;4.20;;
51179;SDS011;37243;49.814;8.652;2022-08-18T14:42:17;4.82;;;4.63;;
51179;SDS011;37243;49.814;8.652;2022-08-18T14:44:49;4.53;;;4.30;;
51179;SDS011;37243;49.814;8.652;2022-08-18T14:47:17;4.50;;;4.30;;
51179;SDS011;37243;49.814;8.652;2022-08-18T14:49:45;4.78;;;4.53;;
51179;SDS011;37243;49.814;8.652;2022-08-18T14:52:14;4.47;;;4.28;;
51179;SDS011;37243;49.814;8.652;2022-08-18T14:54:42;4.78;;;4.47;;
51179;SDS011;37243;49.814;8.652;2022-08-18T14:57:10;4.20;;;4.00;;
51179;SDS011;37243;49.814;8.652;2022-08-18T14:59:39;4.28;;;4.07;;
51179;SDS011;37243;49.814;8.652;2022-08-18T15:02:11;4.60;;;4.40;;
51179;SDS011;37243;49.814;8.652;2022-08-18T15:04:39;4.68;;;4.47;;
51179;SDS011;37243;49.814;8.652;2022-08-18T15:07:09;4.13;;;3.92;;
51179;SDS011;37243;49.814;8.652;2022-08-18T15:09:37;4.70;;;4.50;;
51179;SDS011;37243;49.814;8.652;2022-08-18T15:12:06;4.70;;;4.50;;
51179;SDS011;37243;49.814;8.652;2022-08-18T15:14:35;4.38;;;4.18;;
51179;SDS011;37243;49.814;8.652;2022-08-18T15:17:04;4.60;;;4.40;;
51179;SDS011;37243;49.814;8.652;2022-08-18T15:19:35;4.35;;;4.15;;
51179;SDS011;37243;49.814;8.652;2022-08-18T15:22:04;4.68;;;4.47;;
51179;SDS011;37243;49.814;8.652;2022-08-18T15:24:45;4.60;;;4.40;;
51179;SDS011;37243;49.814;8.652;2022-08-18T15:27:29;4.63;;;4.43;;
51179;SDS011;37243;49.814;8.652;2022-08-18T15:30:00;4.50;;;4.30;;
51179;SDS011;37243;49.814;8.652;2022-08-18T15:32:30;4.30;;;4.10;;
51179;SDS011;37243;49.814;8.652;2022-08-18T15:35:01;4.70;;;4.50;;
51179;SDS011;37243;49.814;8.652;2022-08-18T15:37:32;4.50;;;4.30;;
51179;SDS011;37243;49.814;8.652;2022-08-18T15:40:01;4.32;;;4.13;;
51179;SDS011;37243;49.814;8.652;2022-08-18T15:42:38;4.15;;;3.95;;
51179;SDS011;37243;49.814;8.652;2022-08-18T15:45:13;4.82;;;4.57;;
51179;SDS011;37243;49.814;8.652;2022-08-18T15:47:42;4.88;;;4.65;;
51179;SDS011;37243;49.814;8.652;2022-08-18T15:50:15;4.63;;;4.35;;
51179;SDS011;37243;49.814;8.652;2022-08-18T15:52:44;4.80;;;4.60;;